Time;durP1;ratioP1;P1;durP2;ratioP2;P2;SDS_P1;SDS_P2;PMS_P1;PMS_P2;Temp;Humidity;BMP_temperature;BMP_pressure;BME280_temperature;BME280_humidity;BME280_pressure;Samples;Min_cycle;Max_cycle;Signal;HPM_P1;HPM_P2
2023/06/08 15:57:54;;;;;;;5.90;5.35;;;21.80;44.80;;;;;;5110060;27;20587;-91
2023/06/08 16:00:22;;;;;;;6.03;5.43;;;21.70;39.00;;;;;;5079564;28;20200;-90
2023/06/08 16:02:49;;;;;;;9.02;6.68;;;21.80;42.90;;;;;;5076580;28;20208;-90
2023/06/08 16:05:16;;;;;;;6.07;4.88;;;21.90;51.60;;;;;;5082961;28;20196;-91
2023/06/08 16:11:25;;;;;;;5.50;5.00;;;22.10;46.80;;;;;;5091048;28;20176;-88
2023/06/08 16:13:55;;;;;;;6.10;5.10;;;22.10;49.60;;;;;;5092619;28;20215;-90
2023/06/08 16:16:23;;;;;;;8.65;6.03;;;22.20;47.80;;;;;;5087195;28;20316;-90
2023/06/08 16:18:51;;;;;;;16.15;14.60;;;22.20;44.60;;;;;;5096143;28;20217;-87
2023/06/08 16:24:59;;;;;;;6.65;6.03;;;22.30;34.00;;;;;;5080337;28;20201;-90
2023/06/08 16:27:43;;;;;;;7.63;5.68;;;22.40;27.70;;;;;;5079432;28;20201;-89
2023/06/08 16:30:13;;;;;;;6.32;4.88;;;22.50;24.80;;;;;;5068208;28;20260;-87
2023/06/08 16:32:39;;;;;;;4.70;4.30;;;22.50;21.90;;;;;;5087884;28;20209;-86
2023/06/08 16:35:36;;;;;;;5.18;4.68;;;22.60;20.50;;;;;;5090919;28;20253;-89
2023/06/08 16:44:53;;;;;;;4.55;4.20;;;22.90;21.00;;;;;;5088359;28;20186;-90
2023/06/08 16:47:24;;;;;;;4.95;4.50;;;22.80;20.50;;;;;;5078486;28;20265;-90
2023/06/08 16:55:04;;;;;;;5.85;4.97;;;22.60;24.60;;;;;;5492783;23;20227;-89
2023/06/08 16:57:32;;;;;;;6.03;5.45;;;22.50;25.50;;;;;;5001249;28;20229;-88
2023/06/08 17:00:00;;;;;;;5.35;4.90;;;22.30;28.50;;;;;;5024240;28;20224;-88
2023/06/08 17:02:28;;;;;;;5.50;4.65;;;22.10;26.90;;;;;;5006810;28;20212;-88
2023/06/08 17:04:55;;;;;;;5.03;4.55;;;21.90;27.90;;;;;;4992392;28;20204;-87
2023/06/08 17:07:24;;;;;;;5.25;4.78;;;21.60;28.00;;;;;;5009299;28;20227;-88
2023/06/08 17:09:51;;;;;;;5.65;5.10;;;21.50;30.60;;;;;;4980897;28;20207;-88
2023/06/08 17:12:18;;;;;;;6.13;4.53;;;21.40;30.30;;;;;;4997022;28;20212;-89
2023/06/08 17:14:44;;;;;;;5.90;5.28;;;21.40;33.20;;;;;;4986336;28;20226;-87
2023/06/08 17:17:11;;;;;;;5.47;4.97;;;21.30;33.20;;;;;;4972984;28;20241;-87
2023/06/08 17:19:40;;;;;;;5.65;5.05;;;21.30;33.20;;;;;;4971497;28;20201;-88
2023/06/08 17:22:07;;;;;;;5.88;5.38;;;21.30;40.20;;;;;;4969318;28;20192;-89
2023/06/08 17:24:34;;;;;;;5.60;5.10;;;21.20;42.00;;;;;;4974379;28;20208;-90
2023/06/08 17:27:02;;;;;;;5.82;5.22;;;21.20;44.40;;;;;;4975264;28;20232;-89
2023/06/08 17:29:29;;;;;;;5.45;4.90;;;21.00;42.00;;;;;;4969554;28;20216;-90
2023/06/08 17:31:56;;;;;;;5.95;5.18;;;20.90;41.30;;;;;;4980886;28;20220;-90
2023/06/08 17:34:28;;;;;;;5.70;5.20;;;20.80;40.80;;;;;;4979145;28;20218;-90
2023/06/08 17:36:56;;;;;;;5.55;5.05;;;20.80;41.10;;;;;;4974651;28;20224;-89
2023/06/08 17:39:23;;;;;;;6.05;5.45;;;20.70;40.90;;;;;;4993790;28;20203;-91
2023/06/08 17:41:53;;;;;;;6.13;5.57;;;20.70;41.50;;;;;;4972821;28;20216;-91
2023/06/08 17:44:20;;;;;;;9.43;5.78;;;20.70;40.50;;;;;;4974759;28;20200;-88
2023/06/08 17:46:47;;;;;;;5.80;5.30;;;20.60;41.10;;;;;;5003162;28;20274;-88
2023/06/08 17:49:14;;;;;;;7.22;5.47;;;20.70;42.60;;;;;;4977661;28;20248;-89
2023/06/08 17:51:44;;;;;;;5.88;5.30;;;20.60;44.50;;;;;;4997397;28;20279;-87
2023/06/08 17:54:13;;;;;;;8.40;5.85;;;20.60;44.90;;;;;;4995708;28;20228;-89
2023/06/08 17:56:39;;;;;;;7.53;5.50;;;20.60;42.50;;;;;;4992484;28;20224;-90
2023/06/08 17:59:07;;;;;;;6.03;4.85;;;20.70;41.10;;;;;;4992401;28;20201;-92
2023/06/08 18:01:34;;;;;;;6.50;5.13;;;20.80;39.30;;;;;;4974367;28;20233;-88
2023/06/08 18:04:01;;;;;;;4.72;4.10;;;20.80;38.70;;;;;;4995464;28;20204;-90
2023/06/08 18:06:28;;;;;;;11.68;4.60;;;20.90;35.90;;;;;;4994617;28;20247;-89
2023/06/08 18:08:56;;;;;;;6.38;4.13;;;21.20;35.20;;;;;;4969546;28;20215;-89
2023/06/08 18:11:26;;;;;;;8.65;4.75;;;21.30;37.30;;;;;;4962025;29;20230;-87
2023/06/08 18:13:53;;;;;;;8.95;4.32;;;21.20;37.20;;;;;;4989188;28;20193;-89
2023/06/08 18:16:20;;;;;;;5.28;4.15;;;21.20;40.10;;;;;;4972240;28;20216;-91
2023/06/08 18:18:50;;;;;;;8.63;4.35;;;21.10;39.20;;;;;;4974555;28;20208;-89
2023/06/08 18:21:18;;;;;;;4.78;4.30;;;20.90;37.60;;;;;;4977389;28;20213;-92
2023/06/08 18:23:48;;;;;;;9.50;4.47;;;20.80;39.00;;;;;;4992546;28;20173;-92
2023/06/08 18:26:15;;;;;;;5.38;4.45;;;20.70;35.70;;;;;;4998396;28;20189;-93
2023/06/08 18:28:44;;;;;;;7.32;4.88;;;20.50;34.60;;;;;;4995022;28;20180;-91
2023/06/08 18:31:11;;;;;;;6.28;4.82;;;20.30;37.40;;;;;;4986266;28;20646;-92
2023/06/08 18:33:37;;;;;;;7.75;5.18;;;20.20;42.00;;;;;;4980751;28;20209;-90
2023/06/08 18:36:04;;;;;;;6.60;4.80;;;19.90;55.80;;;;;;4984293;28;20197;-93
2023/06/08 18:38:32;;;;;;;7.88;5.53;;;19.70;62.60;;;;;;4990762;28;20197;-89
2023/06/08 18:40:58;;;;;;;7.20;5.47;;;19.60;71.20;;;;;;4972474;28;20204;-85
2023/06/08 18:43:25;;;;;;;8.52;5.28;;;19.50;75.80;;;;;;4977249;28;20193;-89
2023/06/08 18:45:54;;;;;;;6.00;4.78;;;19.40;76.50;;;;;;4974706;28;20272;-89
2023/06/08 18:48:21;;;;;;;6.78;4.72;;;19.20;70.90;;;;;;4980444;28;20346;-91
2023/06/08 18:50:47;;;;;;;5.40;4.90;;;19.10;62.60;;;;;;4966551;28;20209;-92
2023/06/08 18:53:14;;;;;;;8.98;5.43;;;19.10;68.60;;;;;;4982495;28;20184;-89
2023/06/08 18:55:42;;;;;;;7.90;5.15;;;18.90;72.00;;;;;;4998064;28;20220;-84
2023/06/08 18:58:09;;;;;;;7.20;6.00;;;18.80;80.00;;;;;;4982474;28;20248;-89
2023/06/08 19:00:37;;;;;;;6.28;5.68;;;18.60;83.20;;;;;;4996374;28;20263;-87
2023/06/08 19:03:05;;;;;;;7.65;5.80;;;18.50;86.70;;;;;;4996730;28;20248;-88
2023/06/08 19:05:32;;;;;;;8.70;6.88;;;18.40;90.50;;;;;;4999432;28;20211;-87
2023/06/08 19:07:59;;;;;;;10.63;7.15;;;18.30;92.20;;;;;;4989891;28;20208;-89
2023/06/08 19:10:26;;;;;;;19.42;8.10;;;18.20;94.10;;;;;;4989750;28;20230;-90
2023/06/08 19:12:53;;;;;;;19.88;8.55;;;18.10;96.00;;;;;;4974428;28;20264;-91
2023/06/08 19:15:20;;;;;;;15.15;7.78;;;17.90;97.00;;;;;;4993004;28;20232;-88
2023/06/08 19:17:47;;;;;;;14.80;7.88;;;17.70;97.70;;;;;;4990399;28;20216;-90
2023/06/08 19:20:16;;;;;;;11.57;8.35;;;17.50;98.40;;;;;;4976723;28;20205;-90
2023/06/08 19:22:43;;;;;;;16.27;7.60;;;17.50;99.20;;;;;;4997794;28;20192;-91
2023/06/08 19:25:10;;;;;;;12.35;7.30;;;17.40;99.60;;;;;;4993871;28;20201;-91
2023/06/08 19:27:37;;;;;;;7.97;7.18;;;17.30;99.60;;;;;;4988662;28;20185;-89
2023/06/08 19:30:04;;;;;;;12.27;7.75;;;17.20;99.40;;;;;;4974074;28;20193;-90
2023/06/08 19:32:31;;;;;;;11.10;7.43;;;17.00;99.70;;;;;;4989934;28;20200;-91
2023/06/08 19:34:58;;;;;;;11.80;8.77;;;17.00;99.90;;;;;;4996078;28;20195;-86
2023/06/08 19:37:28;;;;;;;10.73;8.65;;;16.80;99.90;;;;;;4965379;28;20229;-87
2023/06/08 19:47:02;;;;;;;9.68;8.73;;;16.20;99.90;;;;;;4997356;28;20169;-87
2023/06/08 19:53:16;;;;;;;12.15;9.38;;;16.10;99.90;;;;;;4989043;28;20175;-95
2023/06/08 23:51:45;;;;;;;28.38;12.95;;;14.30;99.90;;;;;;4974004;29;20217;-91
2023/06/08 23:54:12;;;;;;;9.25;7.65;;;14.40;99.90;;;;;;4975407;29;20229;-90
2023/06/08 23:56:40;;;;;;;8.32;7.30;;;14.40;99.90;;;;;;4973134;29;20212;-90
2023/06/08 23:59:07;;;;;;;14.15;8.05;;;14.40;99.90;;;;;;4959716;29;20201;-89
